Česky Dansk Deutsch English Espańol Suomi Français Magyar Italiano Nederlands norsk Polski Portuguęs svenska Türkçe

 

Het Weer

Friedrichshafen (Duitsland)

21:50, 21 augustus 2016 (GMT)

NWNNE
WE
SWSSE
Home            
Friedrichshafen Saint Gallen-Altenrhein Konstanz Hohenems-Dornbirn Memmingen Laupheim Messstetten Zurich-Kloten Donaueschingen / Villingen Altenstadt Landsberg Stuttgart-Echterdingen Lechfeld Resia Pass Augsburg Oberpfaffenhofen Fuerstenfeldbruck Innsbruck-Flughafen Lahr, CAN-AFB Bale-Mulhouse Colmar Karlsruhe, Baden Wurttemberg Grenchen

Om een weerknop op uw website of weblog te plaatsen, copieer onderstaande code en plak die in uw pagina. In het eerste vakje staat HTML-code, in het tweede vakje UBB-code.


Add to Google

Details

Láthatóság általában:Nagyobb, mint 10000 m, 10 km, 32800 ft, 6.2 miles
Clouds:Borult at 7900 ft, 2408 m
Hőmérséklet:13°C, 55°F
Harmatpont:10°C, 50°F
Légköri nyomás:1027 hPa, 770.3 mmHg, 30.33 inHg, 1.014 atm
Relatív páratartalom:82.0 %
METAR:EDNY 212150Z AUTO 00000KT 9999 OVC079 13/10 Q1027

Snelkoppelingen

Actuele weersinformatie van de hele wereld. Voeg locaties toe met het plus (+) symbool. Deze snelkoppelingen kunnen worden toegevoegd aan Google.

Lid van de Technetium groep

website free tracking
StatCounter NetStat W3C Validator

18-08-2022 09:21:57
astro.technetium.be money.technetium.be phote.technetium.be tafeltennistafel.technetium.be www.ligfiets.net